ADDS METAR Data INFO
IDs: Format: Raw Decoded Include TAF

Data at: 1303 UTC 19 Jul 2018

KBAK 191149Z 00000KT 10SM SCT230 18/13 A3003
KBAK 191059Z COR 00000KT 10SM SCT230 15/14 A3002
KBAK 191030Z 00000KT 10SM SCT230 15/14 A3002 RMK FIRST
KBAK 190150Z 00000KT 10SM SKC 21/17 A3000 RMK LAST
KBAK 190045Z 00000KT 10SM SCT060 24/16 A3000
KBAK 182345Z 00000KT 10SM SKC 27/12 A3000
KBAK 182246Z 00000KT 10SM BKN060 BKN070 28/12 A2999
KBAK 182200Z 00000KT 10SM SKC 29/12 A3000
KBAK 182045Z 00000KT 10SM SCT060 28/11 A3002
KBAK 181945Z 36004KT 10SM SCT050 28/11 A3004
KBAK 181845Z 02005KT 10SM SKC 27/12 A3006
KBAK 181745Z 00000KT 10SM SKC 27/12 A3007
KBAK 181645Z 00000KT 10SM SKC 25/12 A3008
KBAK 181545Z 00000KT 10SM SKC 24/13 A3009
KBAK 181445Z 00000KT 10SM SKC 22/13 A3008
KBAK 181345Z 00000KT 10SM SKC 20/12 A3009
KBAK 181245Z 36004KT 10SM SKC 18/12 A3010
KBAK 181145Z 00000KT 10SM SKC 16/13 A3009
KBAK 181045Z 34004KT 10SM SKC 15/12 A3008
KBAK 181030Z 34005KT 10SM SKC 15/12 A3008
KBAK 180145Z 00000KT 10SM FEW050 SCT230 22/17 A3002 RMK LAST